createdAt,value
2022-08-28T00:00:20.827Z,99.99
2022-08-28T00:01:20.751Z,99.99
2022-08-28T00:02:20.736Z,99.99
2022-08-28T00:03:20.602Z,99.99
2022-08-28T00:04:20.560Z,99.99
2022-08-28T00:05:20.454Z,99.99
2022-08-28T00:06:20.381Z,99.99
2022-08-28T00:07:20.305Z,99.99
2022-08-28T00:08:20.231Z,99.99
2022-08-28T00:09:20.158Z,99.99
2022-08-28T00:10:20.087Z,99.99
2022-08-28T00:11:20.011Z,99.99
2022-08-28T00:12:19.938Z,99.99
2022-08-28T00:13:19.862Z,99.99
2022-08-28T00:14:19.789Z,99.99
2022-08-28T00:15:19.714Z,99.99
2022-08-28T00:16:19.713Z,99.99
2022-08-28T00:17:19.565Z,99.99
2022-08-28T00:18:19.491Z,99.99
2022-08-28T00:19:19.415Z,99.99
2022-08-28T00:20:19.342Z,99.99
2022-08-28T00:21:19.269Z,99.99
2022-08-28T00:22:19.196Z,99.99
2022-08-28T00:23:19.120Z,99.99
2022-08-28T00:24:19.048Z,99.99
2022-08-28T00:25:18.974Z,99.99
2022-08-28T00:26:18.898Z,99.99
2022-08-28T00:27:18.826Z,99.99
2022-08-28T00:28:24.227Z,99.99
2022-08-28T00:29:18.675Z,99.99
2022-08-28T00:30:18.603Z,99.99
2022-08-28T00:31:18.561Z,99.99
2022-08-28T00:32:18.552Z,99.99
2022-08-28T00:33:18.379Z,99.99
2022-08-28T00:34:18.305Z,99.99
2022-08-28T00:35:18.229Z,99.99
2022-08-28T00:36:18.157Z,99.99
2022-08-28T00:37:18.081Z,99.99
2022-08-28T00:38:18.009Z,99.99
2022-08-28T00:39:17.932Z,99.99
2022-08-28T00:40:17.923Z,99.99
2022-08-28T00:41:17.786Z,99.99
2022-08-28T00:42:17.711Z,99.99
2022-08-28T00:43:17.938Z,99.99
2022-08-28T00:44:17.565Z,99.99
2022-08-28T00:45:17.488Z,99.99
2022-08-28T00:46:17.488Z,99.99
2022-08-28T00:47:17.338Z,99.99
2022-08-28T00:48:17.266Z,99.99
2022-08-28T00:49:17.193Z,99.99
2022-08-28T00:50:17.119Z,99.99
2022-08-28T00:51:17.046Z,99.99
2022-08-28T00:52:16.969Z,99.99
2022-08-28T00:53:16.894Z,99.99
2022-08-28T00:54:16.821Z,99.99
2022-08-28T00:55:16.744Z,99.99
2022-08-28T00:56:16.671Z,99.99
2022-08-28T00:57:16.597Z,99.99
2022-08-28T00:58:16.531Z,99.99
2022-08-28T00:59:16.447Z,99.99
2022-08-28T01:00:16.377Z,99.99
2022-08-28T01:01:16.332Z,99.99
2022-08-28T01:02:16.229Z,99.99
2022-08-28T01:03:16.151Z,99.99
2022-08-28T01:04:16.079Z,99.99
2022-08-28T01:05:16.004Z,99.99
2022-08-28T01:06:15.930Z,99.99
2022-08-28T01:07:15.855Z,99.99
2022-08-28T01:08:15.786Z,99.99
2022-08-28T01:09:15.727Z,99.99
2022-08-28T01:10:15.784Z,99.99
2022-08-28T01:11:15.559Z,99.99
2022-08-28T01:12:15.486Z,99.99
2022-08-28T01:13:15.610Z,99.99
2022-08-28T01:14:15.337Z,99.99
2022-08-28T01:15:15.266Z,99.99
2022-08-28T01:16:15.372Z,99.99
2022-08-28T01:17:15.115Z,99.99
2022-08-28T01:18:15.238Z,99.99
2022-08-28T01:19:14.966Z,99.99
2022-08-28T01:20:14.894Z,99.99
2022-08-28T01:21:19.997Z,99.99
2022-08-28T01:22:14.745Z,99.99
2022-08-28T01:23:14.670Z,99.99
2022-08-28T01:24:14.596Z,99.99
2022-08-28T01:25:14.522Z,99.99
2022-08-28T01:26:14.448Z,99.99
2022-08-28T01:27:14.372Z,99.99
2022-08-28T01:28:14.626Z,99.99
2022-08-28T01:29:14.225Z,99.99
2022-08-28T01:30:14.201Z,99.99
2022-08-28T01:31:14.127Z,99.99
2022-08-28T01:32:14.010Z,99.99
2022-08-28T01:33:13.926Z,99.99
2022-08-28T01:34:13.907Z,99.99
2022-08-28T01:35:13.779Z,99.99
2022-08-28T01:36:13.707Z,99.99
2022-08-28T01:37:13.629Z,99.99
2022-08-28T01:38:17.622Z,99.99
2022-08-28T01:39:13.482Z,99.99
2022-08-28T01:40:13.448Z,99.99
2022-08-28T01:41:13.334Z,99.99
2022-08-28T01:42:13.260Z,99.99
2022-08-28T01:43:13.185Z,99.99
2022-08-28T01:44:13.113Z,99.99
2022-08-28T01:45:13.037Z,99.99
2022-08-28T01:46:13.052Z,99.99
2022-08-28T01:47:12.890Z,99.99
2022-08-28T01:48:12.987Z,99.99
2022-08-28T01:49:12.742Z,99.99
2022-08-28T01:50:12.669Z,99.99
2022-08-28T01:51:12.592Z,99.99
2022-08-28T01:52:12.519Z,99.99
2022-08-28T01:53:12.631Z,99.99
2022-08-28T01:54:12.375Z,99.99
2022-08-28T01:55:12.295Z,99.99
2022-08-28T01:56:12.222Z,99.99
2022-08-28T01:57:12.146Z,99.99
2022-08-28T01:58:12.268Z,99.99
2022-08-28T01:59:11.998Z,99.99
2022-08-28T02:00:11.926Z,99.99
2022-08-28T02:01:11.888Z,99.99
2022-08-28T02:02:11.778Z,99.99
2022-08-28T02:03:11.700Z,99.99
2022-08-28T02:04:11.670Z,99.99
2022-08-28T02:05:11.553Z,99.99
2022-08-28T02:06:11.490Z,99.99
2022-08-28T02:07:11.404Z,99.99
2022-08-28T02:08:11.458Z,99.99
2022-08-28T02:09:14.727Z,99.99
2022-08-28T02:10:11.187Z,99.99
2022-08-28T02:11:11.107Z,99.99
2022-08-28T02:12:11.034Z,99.99
2022-08-28T02:13:10.959Z,99.99
2022-08-28T02:14:10.882Z,99.99
2022-08-28T02:15:10.810Z,99.99
2022-08-28T02:16:10.875Z,99.99
2022-08-28T02:17:10.661Z,99.99
2022-08-28T02:18:10.777Z,99.99
2022-08-28T02:19:10.511Z,99.99
2022-08-28T02:20:10.441Z,99.99
2022-08-28T02:21:10.366Z,99.99
2022-08-28T02:22:10.291Z,99.99
2022-08-28T02:23:10.214Z,99.99
2022-08-28T02:24:10.141Z,99.99
2022-08-28T02:25:10.065Z,99.99
2022-08-28T02:26:09.990Z,99.99
2022-08-28T02:27:09.915Z,99.99
2022-08-28T02:28:09.891Z,99.99
2022-08-28T02:29:09.767Z,99.99
2022-08-28T02:30:09.695Z,99.99
2022-08-28T02:31:09.861Z,99.99
2022-08-28T02:32:09.550Z,99.99
2022-08-28T02:33:09.470Z,99.99
2022-08-28T02:34:09.397Z,99.99
2022-08-28T02:35:12.129Z,99.99
2022-08-28T02:36:09.246Z,99.99
2022-08-28T02:37:09.171Z,99.99
2022-08-28T02:38:09.172Z,99.99
2022-08-28T02:39:09.021Z,99.99
2022-08-28T02:40:08.983Z,99.99
2022-08-28T02:41:08.889Z,99.99
2022-08-28T02:42:08.800Z,99.99
2022-08-28T02:43:08.723Z,99.99
2022-08-28T02:44:08.650Z,99.99
2022-08-28T02:45:08.574Z,99.99
2022-08-28T02:46:08.560Z,99.99
2022-08-28T02:47:08.425Z,99.99
2022-08-28T02:48:08.535Z,99.99
2022-08-28T02:49:08.277Z,99.99
2022-08-28T02:50:08.204Z,99.99
2022-08-28T02:51:08.127Z,99.99
2022-08-28T02:52:08.053Z,99.99
2022-08-28T02:53:07.978Z,99.99
2022-08-28T02:54:07.907Z,99.99
2022-08-28T02:55:07.828Z,99.99
2022-08-28T02:56:07.755Z,99.99
2022-08-28T02:57:07.679Z,99.99
2022-08-28T02:58:07.640Z,99.99
2022-08-28T02:59:07.530Z,99.99
2022-08-28T03:00:07.456Z,99.99
2022-08-28T03:01:07.466Z,99.99
2022-08-28T03:02:07.550Z,99.99
2022-08-28T03:03:07.231Z,99.99
2022-08-28T03:04:07.158Z,99.99
2022-08-28T03:05:07.085Z,99.99
2022-08-28T03:06:07.010Z,99.99
2022-08-28T03:07:06.934Z,99.99
2022-08-28T03:08:06.926Z,99.99
2022-08-28T03:09:06.785Z,99.99
2022-08-28T03:10:06.711Z,99.99
2022-08-28T03:11:06.633Z,99.99
2022-08-28T03:12:06.561Z,99.99
2022-08-28T03:13:06.485Z,99.99
2022-08-28T03:14:06.411Z,99.99
2022-08-28T03:15:06.336Z,99.99
2022-08-28T03:16:06.261Z,99.99
2022-08-28T03:17:06.184Z,99.99
2022-08-28T03:18:08.107Z,99.99
2022-08-28T03:19:06.041Z,99.99
2022-08-28T03:20:05.964Z,99.99
2022-08-28T03:21:05.890Z,99.99
2022-08-28T03:22:05.815Z,99.99
2022-08-28T03:23:05.790Z,99.99
2022-08-28T03:24:05.663Z,99.99
2022-08-28T03:25:05.588Z,99.99
2022-08-28T03:26:05.516Z,99.99
2022-08-28T03:27:05.440Z,99.99
2022-08-28T03:28:05.422Z,99.99
2022-08-28T03:29:05.340Z,99.99
2022-08-28T03:30:05.217Z,99.99
2022-08-28T03:31:05.246Z,99.99
2022-08-28T03:32:05.072Z,99.99
2022-08-28T03:33:04.994Z,99.99
2022-08-28T03:34:04.919Z,99.99
2022-08-28T03:35:04.842Z,99.99
2022-08-28T03:36:04.940Z,99.99
2022-08-28T03:37:04.693Z,99.99
2022-08-28T03:38:04.651Z,99.99
2022-08-28T03:39:04.545Z,99.99
2022-08-28T03:40:04.509Z,99.99
2022-08-28T03:41:04.396Z,99.99
2022-08-28T03:42:04.323Z,99.99
2022-08-28T03:43:04.247Z,99.99
2022-08-28T03:44:04.322Z,99.99
2022-08-28T03:45:04.098Z,99.99
2022-08-28T03:46:04.089Z,99.99
2022-08-28T03:47:04.150Z,99.99
2022-08-28T03:48:03.875Z,99.99
2022-08-28T03:49:03.798Z,99.99
2022-08-28T03:51:36.244Z,99.99
2022-08-28T03:52:36.169Z,99.99
2022-08-28T03:53:36.094Z,99.99
2022-08-28T03:54:36.016Z,99.99
2022-08-28T03:55:35.944Z,99.99
2022-08-28T03:56:35.878Z,99.99
2022-08-28T03:57:35.795Z,99.99
2022-08-28T03:58:35.717Z,99.99
2022-08-28T03:59:35.645Z,99.99
2022-08-28T04:00:35.568Z,99.99
2022-08-28T04:01:35.564Z,99.99
2022-08-28T04:02:35.419Z,99.99
2022-08-28T04:03:35.458Z,99.99
2022-08-28T04:04:35.271Z,99.99
2022-08-28T04:05:35.199Z,99.99
2022-08-28T04:06:36.134Z,99.99
2022-08-28T04:07:35.045Z,99.99
2022-08-28T04:08:34.970Z,99.99
2022-08-28T04:09:34.896Z,99.99
2022-08-28T04:10:34.821Z,99.99
2022-08-28T04:11:34.747Z,99.99
2022-08-28T04:12:35.418Z,99.99
2022-08-28T04:13:34.597Z,99.99
2022-08-28T04:14:34.519Z,99.99
2022-08-28T04:15:34.447Z,99.99
2022-08-28T04:16:34.434Z,99.99
2022-08-28T04:17:34.302Z,99.99
2022-08-28T04:18:34.220Z,99.99
2022-08-28T04:19:34.148Z,99.99
2022-08-28T04:20:34.072Z,99.99
2022-08-28T04:21:33.998Z,99.99
2022-08-28T04:22:33.919Z,99.99
2022-08-28T04:23:33.847Z,99.99
2022-08-28T04:24:33.771Z,99.99
2022-08-28T04:25:33.697Z,99.99
2022-08-28T04:26:33.620Z,99.99
2022-08-28T04:27:33.547Z,99.99
2022-08-28T04:28:33.469Z,99.99
2022-08-28T04:29:33.397Z,99.99
2022-08-28T04:30:33.323Z,99.99
2022-08-28T04:31:33.332Z,99.99
2022-08-28T04:32:33.172Z,99.99
2022-08-28T04:33:33.097Z,99.99
2022-08-28T04:34:33.021Z,99.99
2022-08-28T04:35:32.945Z,99.99
2022-08-28T04:36:32.872Z,99.99
2022-08-28T04:37:32.797Z,99.99
2022-08-28T04:39:32.646Z,99.99
2022-08-28T04:40:32.611Z,99.99
2022-08-28T04:41:32.500Z,99.99
2022-08-28T04:42:32.422Z,99.99
2022-08-28T04:43:32.345Z,99.99
2022-08-28T04:44:32.271Z,99.99
2022-08-28T04:45:32.270Z,99.99
2022-08-28T04:46:32.122Z,99.99
2022-08-28T04:47:32.042Z,99.99
2022-08-28T04:48:31.969Z,99.99
2022-08-28T04:49:31.896Z,99.99
2022-08-28T04:50:31.819Z,99.99
2022-08-28T04:51:31.745Z,99.99
2022-08-28T04:52:31.669Z,99.99
2022-08-28T04:53:31.595Z,99.99
2022-08-28T04:54:31.520Z,99.99
2022-08-28T04:55:53.919Z,99.99
2022-08-28T04:56:31.372Z,99.99
2022-08-28T04:57:36.091Z,99.99
2022-08-28T04:58:31.218Z,99.99
2022-08-28T04:59:31.145Z,99.99
2022-08-28T05:00:31.171Z,99.99
2022-08-28T05:01:31.063Z,99.99
2022-08-28T05:02:31.021Z,99.99
2022-08-28T05:03:30.845Z,99.99
2022-08-28T05:04:30.774Z,99.99
2022-08-28T05:05:30.693Z,99.99
2022-08-28T05:06:30.621Z,99.99
2022-08-28T05:07:30.545Z,99.99
2022-08-28T05:08:30.472Z,99.99
2022-08-28T05:09:30.395Z,99.99
2022-08-28T05:10:30.321Z,99.99
2022-08-28T05:11:34.287Z,99.99
2022-08-28T05:12:30.172Z,99.99
2022-08-28T05:13:30.095Z,99.99
2022-08-28T05:14:30.019Z,99.99
2022-08-28T05:15:29.948Z,99.99
2022-08-28T05:16:29.909Z,99.99
2022-08-28T05:17:32.203Z,99.99
2022-08-28T05:18:29.720Z,99.99
2022-08-28T05:19:29.645Z,99.99
2022-08-28T05:20:29.570Z,99.99
2022-08-28T05:21:29.504Z,99.99
2022-08-28T05:22:29.435Z,99.99
2022-08-28T05:23:29.349Z,99.99
2022-08-28T05:24:29.273Z,99.99
2022-08-28T05:25:29.196Z,99.99
2022-08-28T05:26:29.918Z,99.99
2022-08-28T05:27:29.051Z,99.99
2022-08-28T05:28:28.997Z,99.99
2022-08-28T05:29:28.897Z,99.99
2022-08-28T05:30:28.823Z,99.99
2022-08-28T05:31:28.891Z,99.99
2022-08-28T05:32:28.671Z,99.99
2022-08-28T05:33:28.598Z,99.99
2022-08-28T05:34:28.523Z,99.99
2022-08-28T05:35:28.446Z,99.99
2022-08-28T05:36:32.634Z,99.99
2022-08-28T05:37:28.299Z,99.99
2022-08-28T05:38:28.223Z,99.99
2022-08-28T05:39:28.150Z,99.99
2022-08-28T05:40:28.172Z,99.99
2022-08-28T05:41:28.001Z,99.99
2022-08-28T05:42:30.915Z,99.99
2022-08-28T05:43:27.851Z,99.99
2022-08-28T05:44:27.777Z,99.99
2022-08-28T05:45:27.702Z,99.99
2022-08-28T05:46:27.675Z,99.99
2022-08-28T05:47:27.553Z,99.99
2022-08-28T05:48:27.482Z,99.99
2022-08-28T05:49:27.403Z,99.99
2022-08-28T05:50:27.329Z,99.99
2022-08-28T05:51:27.627Z,99.99
2022-08-28T05:52:27.176Z,99.99
2022-08-28T05:53:27.103Z,99.99
2022-08-28T05:54:29.045Z,99.99
2022-08-28T05:55:26.953Z,99.99
2022-08-28T05:56:26.878Z,99.99
2022-08-28T05:57:26.812Z,99.99
2022-08-28T05:58:26.728Z,99.99
2022-08-28T05:59:26.653Z,99.99
2022-08-28T06:00:26.580Z,99.99
2022-08-28T06:01:26.549Z,99.99
2022-08-28T06:02:26.430Z,99.99
2022-08-28T06:03:26.352Z,99.99
2022-08-28T06:04:26.411Z,99.99
2022-08-28T06:05:26.205Z,99.99
2022-08-28T06:06:26.132Z,99.99
2022-08-28T06:07:26.057Z,99.99
2022-08-28T06:08:25.983Z,99.99
2022-08-28T06:09:29.321Z,99.99
2022-08-28T06:10:25.835Z,99.99
2022-08-28T06:11:25.755Z,99.99
2022-08-28T06:12:25.684Z,99.99
2022-08-28T06:13:25.610Z,99.99
2022-08-28T06:14:25.533Z,99.99
2022-08-28T06:15:25.460Z,99.99
2022-08-28T06:16:25.606Z,99.99
2022-08-28T06:17:25.309Z,99.99
2022-08-28T06:18:25.235Z,99.99
2022-08-28T06:19:25.177Z,99.99
2022-08-28T06:20:25.087Z,99.99
2022-08-28T06:21:25.010Z,99.99
2022-08-28T06:22:24.935Z,99.99
2022-08-28T06:23:24.861Z,99.99
2022-08-28T06:24:24.788Z,99.99
2022-08-28T06:25:24.712Z,99.99
2022-08-28T06:26:24.637Z,99.99
2022-08-28T06:27:24.562Z,99.99
2022-08-28T06:28:24.487Z,99.99
2022-08-28T06:29:24.949Z,99.99
2022-08-28T06:30:24.339Z,99.99
2022-08-28T06:31:26.486Z,99.99
2022-08-28T06:32:24.233Z,99.99
2022-08-28T06:33:24.114Z,99.99
2022-08-28T06:34:24.038Z,99.99
2022-08-28T06:35:23.966Z,99.99
2022-08-28T06:36:23.890Z,99.99
2022-08-28T06:37:23.814Z,99.99
2022-08-28T06:38:23.743Z,99.99
2022-08-28T06:39:23.667Z,99.99
2022-08-28T06:40:23.642Z,99.99
2022-08-28T06:41:23.516Z,99.99
2022-08-28T06:42:23.576Z,99.99
2022-08-28T06:43:23.369Z,99.99
2022-08-28T06:44:23.294Z,99.99
2022-08-28T06:45:23.219Z,99.99
2022-08-28T06:46:23.213Z,99.99
2022-08-28T06:47:23.069Z,99.99
2022-08-28T06:48:23.012Z,99.99
2022-08-28T06:49:22.961Z,99.99
2022-08-28T06:50:22.845Z,99.99
2022-08-28T06:51:24.878Z,99.99
2022-08-28T06:52:22.696Z,99.99
2022-08-28T06:53:22.621Z,99.99
2022-08-28T06:54:23.581Z,99.99
2022-08-28T06:55:22.472Z,99.99
2022-08-28T06:56:26.139Z,99.99
2022-08-28T06:57:22.322Z,99.99
2022-08-28T06:58:22.249Z,99.99
2022-08-28T06:59:22.176Z,99.99
2022-08-28T07:00:22.149Z,99.99
2022-08-28T07:01:22.097Z,99.99
2022-08-28T07:02:22.059Z,99.99
2022-08-28T07:03:21.876Z,99.99
2022-08-28T07:04:21.802Z,99.99
2022-08-28T07:05:21.729Z,99.99
2022-08-28T07:06:21.653Z,99.99
2022-08-28T07:07:32.486Z,99.99
2022-08-28T07:08:21.505Z,99.99
2022-08-28T07:09:21.430Z,99.99
2022-08-28T07:10:21.356Z,99.99
2022-08-28T07:11:21.282Z,99.99
2022-08-28T07:12:21.206Z,99.99
2022-08-28T07:13:21.130Z,99.99
2022-08-28T07:14:21.057Z,99.99
2022-08-28T07:15:20.983Z,99.99
2022-08-28T07:16:21.091Z,99.99
2022-08-28T07:17:20.835Z,99.99
2022-08-28T07:18:20.758Z,99.99
2022-08-28T07:19:20.692Z,99.99
2022-08-28T07:20:20.610Z,99.99
2022-08-28T07:21:20.542Z,99.99
2022-08-28T07:22:20.463Z,99.99
2022-08-28T07:23:20.389Z,99.99
2022-08-28T07:24:20.415Z,99.99
2022-08-28T07:25:20.238Z,99.99
2022-08-28T07:26:20.177Z,99.99
2022-08-28T07:27:20.091Z,99.99
2022-08-28T07:28:20.019Z,99.99
2022-08-28T07:29:19.943Z,99.99
2022-08-28T07:30:19.868Z,99.99
2022-08-28T07:31:19.871Z,99.99
2022-08-28T07:32:19.720Z,99.99
2022-08-28T07:33:19.647Z,99.99
2022-08-28T07:34:19.571Z,99.99
2022-08-28T07:35:19.496Z,99.99
2022-08-28T07:36:29.286Z,99.99
2022-08-28T07:37:19.350Z,99.99
2022-08-28T07:38:19.276Z,99.99
2022-08-28T07:39:19.200Z,99.99
2022-08-28T07:40:19.174Z,99.99
2022-08-28T07:41:19.053Z,99.99
2022-08-28T07:42:18.981Z,99.99
2022-08-28T07:43:18.905Z,99.99
2022-08-28T07:45:18.793Z,99.99
2022-08-28T07:46:18.959Z,99.99
2022-08-28T07:47:19.013Z,99.99
2022-08-28T07:49:18.496Z,99.99
2022-08-28T07:50:18.421Z,99.99
2022-08-28T07:52:18.583Z,99.99
2022-08-28T07:55:18.662Z,99.99
2022-08-28T07:57:18.105Z,99.99
2022-08-28T07:58:17.840Z,99.99
2022-08-28T07:59:19.147Z,99.99
2022-08-28T08:00:17.649Z,99.99
2022-08-28T08:01:17.674Z,99.99
2022-08-28T08:02:17.500Z,99.99
2022-08-28T08:03:17.480Z,99.99
2022-08-28T08:04:17.357Z,99.99
2022-08-28T08:05:17.686Z,99.99
2022-08-28T08:06:17.206Z,99.99
2022-08-28T08:07:17.132Z,99.99
2022-08-28T08:08:17.058Z,99.99
2022-08-28T08:09:16.983Z,99.99
2022-08-28T08:10:20.599Z,99.99
2022-08-28T08:11:16.838Z,99.99
2022-08-28T08:12:16.765Z,99.99
2022-08-28T08:13:16.693Z,99.99
2022-08-28T08:14:16.617Z,99.99
2022-08-28T08:15:16.545Z,99.99
2022-08-28T08:16:16.518Z,99.99
2022-08-28T08:17:16.397Z,99.99
2022-08-28T08:18:18.942Z,99.74
2022-08-28T08:19:16.252Z,99.99
2022-08-28T08:20:16.176Z,99.99
2022-08-28T08:21:16.142Z,99.93
2022-08-28T08:22:16.066Z,99.35
2022-08-28T08:23:15.996Z,99.07
2022-08-28T08:24:17.988Z,99.40
2022-08-28T08:25:15.808Z,99.21
2022-08-28T08:26:17.048Z,99.02
2022-08-28T08:27:15.664Z,99.21
2022-08-28T08:28:15.588Z,99.16
2022-08-28T08:29:15.517Z,99.07
2022-08-28T08:30:15.444Z,99.35
2022-08-28T08:31:15.447Z,99.35
2022-08-28T08:32:15.298Z,98.97
2022-08-28T08:33:15.226Z,99.16
2022-08-28T08:34:15.152Z,99.99
2022-08-28T08:35:15.078Z,99.16
2022-08-28T08:36:15.006Z,99.55
2022-08-28T08:37:14.935Z,99.26
2022-08-28T08:38:14.953Z,99.26
2022-08-28T08:39:14.786Z,99.26
2022-08-28T08:40:14.736Z,99.21
2022-08-28T08:41:14.640Z,98.77
2022-08-28T08:42:14.567Z,98.68
2022-08-28T08:43:14.494Z,99.11
2022-08-28T08:44:14.422Z,98.77
2022-08-28T08:45:14.349Z,99.40
2022-08-28T08:46:14.332Z,98.92
2022-08-28T08:47:15.359Z,98.15
2022-08-28T08:48:14.339Z,98.34
2022-08-28T08:49:14.059Z,97.28
2022-08-28T08:50:13.984Z,97.47
2022-08-28T08:51:13.925Z,97.57
2022-08-28T08:52:13.839Z,97.04
2022-08-28T08:53:13.770Z,97.24
2022-08-28T08:54:13.694Z,97.42
2022-08-28T08:55:15.100Z,97.52
2022-08-28T08:56:13.548Z,97.24
2022-08-28T08:57:13.478Z,96.66
2022-08-28T08:58:13.639Z,96.66
2022-08-28T08:59:13.333Z,96.08
2022-08-28T09:00:15.879Z,95.79
2022-08-28T09:01:13.216Z,96.36
2022-08-28T09:02:13.114Z,97.14
2022-08-28T09:03:13.170Z,97.04
2022-08-28T09:04:13.374Z,96.75
2022-08-28T09:05:12.898Z,95.88
2022-08-28T09:06:12.822Z,96.46
2022-08-28T09:07:12.752Z,95.59
2022-08-28T09:08:12.934Z,95.40
2022-08-28T09:09:12.608Z,95.79
2022-08-28T09:10:12.534Z,96.22
2022-08-28T09:11:12.462Z,95.06
2022-08-28T09:12:12.390Z,94.43
2022-08-28T09:13:12.319Z,95.06
2022-08-28T09:14:12.245Z,94.20
2022-08-28T09:15:12.324Z,93.80
2022-08-28T09:16:12.166Z,94.48
2022-08-28T09:17:12.030Z,93.71
2022-08-28T09:18:12.237Z,92.94
2022-08-28T09:19:11.886Z,92.84
2022-08-28T09:20:11.812Z,93.04
2022-08-28T09:21:11.742Z,93.23
2022-08-28T09:22:11.667Z,93.52
2022-08-28T09:23:11.597Z,93.62
2022-08-28T09:24:11.524Z,93.23
2022-08-28T09:25:11.453Z,92.94
2022-08-28T09:26:11.380Z,92.84
2022-08-28T09:27:14.445Z,92.74
2022-08-28T09:28:11.327Z,93.04
2022-08-28T09:29:11.165Z,92.94
2022-08-28T09:30:11.093Z,92.50
2022-08-28T09:31:11.049Z,92.02
2022-08-28T09:32:13.571Z,92.07
2022-08-28T09:33:10.886Z,92.74
2022-08-28T09:34:10.802Z,92.36
2022-08-28T09:35:10.733Z,92.94
2022-08-28T09:37:11.324Z,91.35
2022-08-28T09:38:10.517Z,91.25
2022-08-28T09:39:10.443Z,90.86
2022-08-28T09:40:10.393Z,91.05
2022-08-28T09:41:10.301Z,91.05
2022-08-28T09:42:10.241Z,91.05
2022-08-28T09:43:10.155Z,91.39
2022-08-28T09:44:10.086Z,89.89
2022-08-28T09:45:10.015Z,90.23
2022-08-28T09:46:10.031Z,89.99
2022-08-28T09:47:09.870Z,89.70
2022-08-28T09:48:09.801Z,89.99
2022-08-28T09:49:09.727Z,89.89
2022-08-28T09:50:09.657Z,90.71
2022-08-28T09:51:09.583Z,90.91
2022-08-28T09:52:09.615Z,89.36
2022-08-28T09:53:09.440Z,89.65
2022-08-28T09:54:09.369Z,89.36
2022-08-28T09:55:09.294Z,89.75
2022-08-28T09:56:09.226Z,89.31
2022-08-28T09:57:09.155Z,89.22
2022-08-28T09:58:09.122Z,89.41
2022-08-28T09:59:09.012Z,89.45
2022-08-28T10:00:08.939Z,89.94
2022-08-28T10:01:09.095Z,88.68
2022-08-28T10:02:08.933Z,87.81
2022-08-28T10:03:08.725Z,88.49
2022-08-28T10:04:08.691Z,88.97
2022-08-28T10:05:08.582Z,88.59
2022-08-28T10:06:08.511Z,88.92
2022-08-28T10:07:08.439Z,87.52
2022-08-28T10:08:08.371Z,87.91
2022-08-28T10:09:08.298Z,88.68
2022-08-28T10:10:08.327Z,87.71
2022-08-28T10:11:08.155Z,87.43
2022-08-28T10:12:08.085Z,87.43
2022-08-28T10:13:08.011Z,87.57
2022-08-28T10:14:07.942Z,87.76
2022-08-28T10:15:07.871Z,86.51
2022-08-28T10:16:07.824Z,86.21
2022-08-28T10:17:07.728Z,87.37
2022-08-28T10:18:07.655Z,86.21
2022-08-28T10:19:07.584Z,85.53
2022-08-28T10:20:07.512Z,85.53
2022-08-28T10:21:07.441Z,86.11
2022-08-28T10:22:07.371Z,85.73
2022-08-28T10:23:07.296Z,85.05
2022-08-28T10:24:07.227Z,84.77
2022-08-28T10:25:07.157Z,85.15
2022-08-28T10:26:07.083Z,84.91
2022-08-28T10:27:07.014Z,85.88
2022-08-28T10:28:07.028Z,85.63
2022-08-28T10:29:06.870Z,85.25
2022-08-28T10:30:09.965Z,85.53
2022-08-28T10:31:06.766Z,85.05
2022-08-28T10:32:06.662Z,84.09
2022-08-28T10:33:06.580Z,84.24
2022-08-28T10:34:06.510Z,84.72
2022-08-28T10:35:06.436Z,84.63
2022-08-28T10:36:06.365Z,85.01
2022-08-28T10:37:06.296Z,83.89
2022-08-28T10:38:06.242Z,83.51
2022-08-28T10:39:06.148Z,83.51
2022-08-28T10:40:06.102Z,83.51
2022-08-28T10:41:06.006Z,82.83
2022-08-28T10:42:06.033Z,83.89
2022-08-28T10:43:05.862Z,82.93
2022-08-28T10:44:05.792Z,82.78
2022-08-28T10:45:05.718Z,82.20
2022-08-28T10:46:05.710Z,81.32
2022-08-28T10:47:05.574Z,80.79
2022-08-28T10:48:05.500Z,81.27
2022-08-28T10:49:05.529Z,80.69
2022-08-28T10:50:05.359Z,81.56
2022-08-28T10:51:05.286Z,80.59
2022-08-28T10:52:05.217Z,80.79
2022-08-28T10:53:05.144Z,80.98
2022-08-28T10:54:05.072Z,80.30
2022-08-28T10:55:04.999Z,80.15
2022-08-28T10:56:04.937Z,79.95
2022-08-28T10:57:04.861Z,79.33
2022-08-28T10:58:04.801Z,79.82
2022-08-28T10:59:04.714Z,80.15
2022-08-28T11:00:04.644Z,79.85
2022-08-28T11:01:04.649Z,80.05
2022-08-28T11:02:04.500Z,79.27
2022-08-28T11:03:04.695Z,79.37
2022-08-28T11:04:04.359Z,80.73
2022-08-28T11:05:04.288Z,80.34
2022-08-28T11:06:04.214Z,80.19
2022-08-28T11:07:04.144Z,79.80
2022-08-28T11:08:04.086Z,78.64
2022-08-28T11:09:04.006Z,78.59
2022-08-28T11:10:03.934Z,79.47
2022-08-28T11:11:03.863Z,79.80
2022-08-28T11:12:03.792Z,79.70
2022-08-28T11:13:03.721Z,78.83
2022-08-28T11:14:03.651Z,79.02
2022-08-28T11:15:03.591Z,79.57
2022-08-28T11:16:03.511Z,79.95
2022-08-28T11:17:03.463Z,80.15
2022-08-28T11:18:03.368Z,80.15
2022-08-28T11:19:03.297Z,79.80
2022-08-28T11:20:04.037Z,79.17
2022-08-28T11:21:03.166Z,79.41
2022-08-28T11:22:03.087Z,79.02
2022-08-28T11:23:03.016Z,78.67
2022-08-28T11:24:02.945Z,77.90
2022-08-28T11:25:07.660Z,77.80
2022-08-28T11:26:02.806Z,77.70
2022-08-28T11:27:02.734Z,76.93
2022-08-28T11:28:02.666Z,76.35
2022-08-28T11:29:02.597Z,76.45
2022-08-28T11:30:02.559Z,77.09
2022-08-28T11:31:02.543Z,77.09
2022-08-28T11:32:02.385Z,77.34
2022-08-28T11:33:02.701Z,77.53
2022-08-28T11:35:02.210Z,77.96
2022-08-28T11:36:02.135Z,78.83
2022-08-28T11:37:02.071Z,77.90
2022-08-28T11:38:02.019Z,76.25
2022-08-28T11:39:01.946Z,76.68
2022-08-28T11:40:01.883Z,75.90
2022-08-28T11:41:01.754Z,75.23
2022-08-28T11:42:01.682Z,74.64
2022-08-28T11:43:01.615Z,74.58
2022-08-28T11:44:01.545Z,73.52
2022-08-28T11:45:02.281Z,73.13
2022-08-28T11:46:01.848Z,73.26
2022-08-28T11:47:01.437Z,73.20
2022-08-28T11:48:43.754Z,70.61
2022-08-28T11:49:43.684Z,69.42
2022-08-28T11:50:43.619Z,69.29
2022-08-28T11:51:43.548Z,66.63
2022-08-28T11:52:43.483Z,67.35
2022-08-28T11:54:25.905Z,66.50
2022-08-28T11:55:25.837Z,66.34
2022-08-28T11:56:30.603Z,65.98
2022-08-28T11:57:25.705Z,64.10
2022-08-28T11:58:25.642Z,64.10
2022-08-28T11:59:25.583Z,64.78
2022-08-28T12:00:26.926Z,65.30
2022-08-28T12:01:25.494Z,65.43
2022-08-28T12:02:25.426Z,64.84
2022-08-28T12:03:25.316Z,64.81
2022-08-28T12:04:25.280Z,65.08
2022-08-28T12:05:25.187Z,65.43
2022-08-28T12:06:25.124Z,64.81
2022-08-28T12:07:25.060Z,63.42
2022-08-28T12:08:24.997Z,63.18
2022-08-28T12:10:07.426Z,63.41
2022-08-28T12:11:07.363Z,62.38
2022-08-28T12:12:07.303Z,62.50
2022-08-28T12:13:49.734Z,63.64
2022-08-28T12:14:49.671Z,62.60
2022-08-28T12:19:02.006Z,62.24
2022-08-28T12:20:01.945Z,61.24
2022-08-28T12:21:02.083Z,61.82
2022-08-28T12:22:01.820Z,62.73
2022-08-28T12:23:01.760Z,63.35
2022-08-28T12:24:07.237Z,63.18
2022-08-28T12:25:05.066Z,62.86
2022-08-28T12:26:01.575Z,62.28
2022-08-28T12:27:01.515Z,62.50
2022-08-28T12:28:01.451Z,61.46
2022-08-28T12:29:01.395Z,61.40
2022-08-28T12:30:01.330Z,60.16
2022-08-28T12:31:01.296Z,59.67
2022-08-28T12:32:43.706Z,58.69
2022-08-28T12:33:43.644Z,60.03
2022-08-28T12:34:43.584Z,59.57
2022-08-28T12:35:44.011Z,58.62
2022-08-28T12:36:43.462Z,57.93
2022-08-28T12:37:51.094Z,57.35
2022-08-28T12:38:43.342Z,57.93
2022-08-28T12:39:43.282Z,58.11
2022-08-28T12:40:43.420Z,58.83
2022-08-28T12:41:43.164Z,59.61
2022-08-28T12:42:43.103Z,60.13
2022-08-28T12:43:46.788Z,58.62
2022-08-28T12:46:42.866Z,56.67
2022-08-28T12:50:08.492Z,58.27
2022-08-28T12:51:08.433Z,58.60
2022-08-28T12:52:08.372Z,59.67
2022-08-28T12:53:08.315Z,59.55
2022-08-28T12:54:08.350Z,60.39
2022-08-28T12:55:08.191Z,60.94
2022-08-28T12:58:33.881Z,56.79
2022-08-28T13:00:16.318Z,56.86
2022-08-28T13:01:16.364Z,55.96
2022-08-28T13:02:16.313Z,57.07
2022-08-28T13:03:16.135Z,58.28
2022-08-28T13:04:16.076Z,59.81
2022-08-28T13:05:16.016Z,59.52
2022-08-28T13:06:15.956Z,60.16
2022-08-28T13:07:15.895Z,59.31
2022-08-28T13:08:15.836Z,58.17
2022-08-28T13:09:15.777Z,57.32
2022-08-28T13:10:15.717Z,57.75
2022-08-28T13:11:15.651Z,58.12
2022-08-28T13:12:15.597Z,59.30
2022-08-28T13:13:15.569Z,61.11
2022-08-28T13:14:15.473Z,60.63
2022-08-28T13:15:15.410Z,60.85
2022-08-28T13:16:15.416Z,61.21